15:23
Airports
Links
Donate
Help keep this website running!
PayPal
Bitcoin
METAR
ZSOF 191500Z 04001MPS 1200 R15/1000V1500N BCFG BR NSC 05/05 Q1023 BECMG TL1700 0700 FG
Current Weather Conditions at ZSOF
LIFR 15:00:00 19-01-18
Altimeter:30.21 hg
Temp:5.0°c 41°f
Dew point:5.0°c 41°f
Wind:2 knots, 2.3 mph, 1 m/s, from 40°
Visibility:0.75 statute miles
(CLR) Clear
Past METAR reports
LIFR 14:00:00 19-01-18
Altimeter:30.21 hg
Temp:6.0°c 43°f
Dew point:5.0°c 41°f
Wind:2 knots, 2.3 mph, 1 m/s, from 360°
Visibility:0.87 statute miles
(CLR) Clear
No significant weather changes expected within 2 hours.
ZSOF 191400Z 36001MPS 1400 R15/P2000 BR NSC 06/05 Q1023 NOSIG
IFR 13:00:00 19-01-18
Altimeter:30.21 hg
Temp:7.0°c 45°f
Dew point:5.0°c 41°f
Wind:4 knots, 4.6 mph, 2 m/s, from 190°
Visibility:1.12 statute miles
(CLR) Clear
ZSOF 191300Z 19002MPS 1800 BR NSC 07/05 Q1023 BECMG TL1430 1400
IFR 12:00:00 19-01-18
Altimeter:30.18 hg
Temp:7.0°c 45°f
Dew point:5.0°c 41°f
Wind:4 knots, 4.6 mph, 2 m/s, from 180°
Visibility:1.12 statute miles
2000(FEW) A few
ZSOF 191200Z 18002MPS 1800 BR FEW020 07/05 Q1022 BECMG TL1400 1300
IFR 11:00:00 19-01-18
Altimeter:30.21 hg
Temp:7.0°c 45°f
Dew point:5.0°c 41°f
Wind:4 knots, 4.6 mph, 2 m/s, from 180°
Visibility:1.24 statute miles
2000(FEW) A few
No significant weather changes expected within 2 hours.
ZSOF 191100Z 18002MPS 2000 BR FEW020 07/05 Q1023 NOSIG
IFR 10:00:00 19-01-18
Altimeter:30.18 hg
Temp:7.0°c 45°f
Dew point:5.0°c 41°f
Wind:2 knots, 2.3 mph, 1 m/s, from 100°
Visibility:1.12 statute miles
2000(SCT) Scattered
No significant weather changes expected within 2 hours.
ZSOF 191000Z 10001MPS 1800 BR SCT020 07/05 Q1022 NOSIG
TAF
TAF ZSOF 190912Z 1912/2012 12003MPS 1400 BR SCT020 TX11/2006Z TN02/1922Z BECMG 1918/1919 0700 FG BECMG 1920/1921 0300 FG VV002 BECMG 2002/2003 0700 FG BECMG 2003/2004 1000 BR SCT011 BECMG 2005/2006 1700 BR
Forecast at ZSOF
12:00 19-01-18 to 18:00 19-01-18
BR
Wind:6 Knots from 120°
Visibility:0.87 statute miles
2000SCT Scattered
BECMG 18:00 19-01-18 to 20:00 19-01-18
FG
Wind:6 Knots from 120°
Visibility:0.43 statute miles
2000SCT Scattered
BECMG 20:00 19-01-18 to 02:00 20-01-18
FG
Wind:6 Knots from 120°
Visibility:0.19 statute miles
OVX
BECMG 02:00 20-01-18 to 03:00 20-01-18
FG
Wind:6 Knots from 120°
Visibility:0.43 statute miles
OVX
BECMG 03:00 20-01-18 to 05:00 20-01-18
BR
Wind:6 Knots from 120°
Visibility:0.62 statute miles
1100SCT Scattered
BECMG 05:00 20-01-18 to 12:00 20-01-18
BR
Wind:6 Knots from 120°
Visibility:1.06 statute miles
1100SCT Scattered